createdAt,value
2023-04-25T00:00:54.220Z,94269.00
2023-04-25T00:01:54.159Z,94267.00
2023-04-25T00:02:54.309Z,94265.00
2023-04-25T00:03:54.657Z,94267.00
2023-04-25T00:04:54.306Z,94265.00
2023-04-25T00:05:54.160Z,94263.00
2023-04-25T00:06:54.106Z,94263.00
2023-04-25T00:07:54.115Z,94265.00
2023-04-25T00:08:54.077Z,94265.00
2023-04-25T00:09:54.089Z,94265.00
2023-04-25T00:10:54.086Z,94265.00
2023-04-25T00:11:54.119Z,94267.00
2023-04-25T00:12:54.066Z,94263.00
2023-04-25T00:13:54.224Z,94263.00
2023-04-25T00:14:54.058Z,94265.00
2023-04-25T00:15:54.042Z,94267.00
2023-04-25T00:16:54.065Z,94265.00
2023-04-25T00:17:54.151Z,94265.00
2023-04-25T00:18:54.083Z,94265.00
2023-04-25T00:19:54.027Z,94263.00
2023-04-25T00:20:54.027Z,94263.00
2023-04-25T00:21:54.057Z,94261.00
2023-04-25T00:22:54.107Z,94259.00
2023-04-25T00:23:54.051Z,94259.00
2023-04-25T00:24:54.110Z,94261.00
2023-04-25T00:25:54.080Z,94261.00
2023-04-25T00:26:54.086Z,94263.00
2023-04-25T00:27:54.094Z,94263.00
2023-04-25T00:28:54.113Z,94263.00
2023-04-25T00:29:54.111Z,94261.00
2023-04-25T00:30:54.128Z,94256.00
2023-04-25T00:31:54.208Z,94263.00
2023-04-25T00:32:54.217Z,94257.00
2023-04-25T00:33:54.222Z,94257.00
2023-04-25T00:34:54.228Z,94257.00
2023-04-25T00:35:54.178Z,94257.00
2023-04-25T00:36:54.204Z,94256.00
2023-04-25T00:37:54.189Z,94257.00
2023-04-25T00:38:54.307Z,94257.00
2023-04-25T00:39:54.224Z,94261.00
2023-04-25T00:40:54.273Z,94261.00
2023-04-25T00:41:54.356Z,94263.00
2023-04-25T00:42:54.279Z,94265.00
2023-04-25T00:43:54.286Z,94263.00
2023-04-25T00:44:54.299Z,94263.00
2023-04-25T00:45:54.318Z,94263.00
2023-04-25T00:46:54.372Z,94263.00
2023-04-25T00:47:54.378Z,94263.00
2023-04-25T00:48:54.425Z,94259.00
2023-04-25T00:49:54.380Z,94259.00
2023-04-25T00:50:54.367Z,94259.00
2023-04-25T00:51:54.370Z,94257.00
2023-04-25T00:52:54.391Z,94259.00
2023-04-25T00:53:54.440Z,94259.00
2023-04-25T00:54:54.418Z,94259.00
2023-04-25T00:55:54.398Z,94261.00
2023-04-25T00:56:54.400Z,94261.00
2023-04-25T00:57:54.433Z,94259.00
2023-04-25T00:58:54.455Z,94261.00
2023-04-25T00:59:54.495Z,94259.00
2023-04-25T01:00:54.552Z,94261.00
2023-04-25T01:01:54.573Z,94261.00
2023-04-25T01:02:54.637Z,94261.00
2023-04-25T01:03:55.158Z,94263.00
2023-04-25T01:04:54.559Z,94265.00
2023-04-25T01:05:54.692Z,94261.00
2023-04-25T01:06:54.610Z,94265.00
2023-04-25T01:07:54.659Z,94265.00
2023-04-25T01:08:54.666Z,94263.00
2023-04-25T01:09:54.664Z,94261.00
2023-04-25T01:10:54.685Z,94257.00
2023-04-25T01:11:54.762Z,94254.00
2023-04-25T01:12:54.746Z,94252.00
2023-04-25T01:13:54.759Z,94250.00
2023-04-25T01:14:54.730Z,94248.00
2023-04-25T01:15:54.815Z,94246.00
2023-04-25T01:16:54.809Z,94246.00
2023-04-25T01:17:54.872Z,94250.00
2023-04-25T01:18:54.892Z,94246.00
2023-04-25T01:19:54.892Z,94244.00
2023-04-25T01:20:54.874Z,94244.00
2023-04-25T01:21:54.954Z,94246.00
2023-04-25T01:22:54.906Z,94244.00
2023-04-25T01:23:54.981Z,94246.00
2023-04-25T01:24:54.976Z,94242.00
2023-04-25T01:25:55.012Z,94242.00
2023-04-25T01:26:55.044Z,94242.00
2023-04-25T01:27:55.095Z,94242.00
2023-04-25T01:28:55.116Z,94240.00
2023-04-25T01:29:55.131Z,94240.00
2023-04-25T01:30:55.150Z,94240.00
2023-04-25T01:31:55.194Z,94242.00
2023-04-25T01:32:55.234Z,94242.00
2023-04-25T01:33:55.207Z,94242.00
2023-04-25T01:34:55.249Z,94244.00
2023-04-25T01:35:55.252Z,94248.00
2023-04-25T01:36:55.295Z,94248.00
2023-04-25T01:37:55.318Z,94248.00
2023-04-25T01:38:55.391Z,94244.00
2023-04-25T01:39:55.332Z,94246.00
2023-04-25T01:40:55.389Z,94244.00
2023-04-25T01:41:56.670Z,94242.00
2023-04-25T01:42:55.482Z,94244.00
2023-04-25T01:43:55.463Z,94244.00
2023-04-25T01:44:55.478Z,94240.00
2023-04-25T01:45:55.582Z,94242.00
2023-04-25T01:46:55.543Z,94242.00
2023-04-25T01:47:55.611Z,94242.00
2023-04-25T01:48:55.628Z,94244.00
2023-04-25T01:49:55.723Z,94240.00
2023-04-25T01:50:55.716Z,94238.00
2023-04-25T01:51:55.794Z,94242.00
2023-04-25T01:52:55.739Z,94238.00
2023-04-25T01:53:55.789Z,94238.00
2023-04-25T01:54:55.796Z,94238.00
2023-04-25T01:55:55.855Z,94238.00
2023-04-25T01:56:55.862Z,94236.00
2023-04-25T01:57:55.869Z,94236.00
2023-04-25T01:58:55.877Z,94232.00
2023-04-25T01:59:55.930Z,94236.00
2023-04-25T02:00:55.994Z,94232.00
2023-04-25T02:01:56.088Z,94234.00
2023-04-25T02:02:56.128Z,94238.00
2023-04-25T02:03:56.287Z,94234.00
2023-04-25T02:04:56.060Z,94232.00
2023-04-25T02:05:56.127Z,94236.00
2023-04-25T02:06:56.184Z,94234.00
2023-04-25T02:07:56.183Z,94236.00
2023-04-25T02:08:56.249Z,94236.00
2023-04-25T02:09:56.261Z,94236.00
2023-04-25T02:10:56.261Z,94240.00
2023-04-25T02:11:56.312Z,94238.00
2023-04-25T02:12:56.319Z,94238.00
2023-04-25T02:13:56.359Z,94236.00
2023-04-25T02:14:56.407Z,94234.00
2023-04-25T02:15:56.482Z,94236.00
2023-04-25T02:16:56.509Z,94236.00
2023-04-25T02:17:56.546Z,94238.00
2023-04-25T02:18:56.530Z,94236.00
2023-04-25T02:19:56.577Z,94236.00
2023-04-25T02:20:56.592Z,94238.00
2023-04-25T02:21:56.606Z,94236.00
2023-04-25T02:22:56.599Z,94238.00
2023-04-25T02:23:56.705Z,94234.00
2023-04-25T02:24:56.716Z,94236.00
2023-04-25T02:25:56.723Z,94236.00
2023-04-25T02:26:56.781Z,94236.00
2023-04-25T02:27:56.804Z,94234.00
2023-04-25T02:28:56.858Z,94234.00
2023-04-25T02:29:56.881Z,94232.00
2023-04-25T02:30:56.930Z,94230.00
2023-04-25T02:31:57.035Z,94232.00
2023-04-25T02:32:56.965Z,94230.00
2023-04-25T02:33:56.998Z,94230.00
2023-04-25T02:34:57.109Z,94232.00
2023-04-25T02:35:57.097Z,94232.00
2023-04-25T02:36:57.142Z,94232.00
2023-04-25T02:37:57.105Z,94234.00
2023-04-25T02:38:57.172Z,94236.00
2023-04-25T02:39:57.197Z,94234.00
2023-04-25T02:40:57.196Z,94236.00
2023-04-25T02:41:57.305Z,94236.00
2023-04-25T02:42:57.302Z,94234.00
2023-04-25T02:43:57.316Z,94234.00
2023-04-25T02:44:57.374Z,94232.00
2023-04-25T02:45:57.380Z,94234.00
2023-04-25T02:46:57.472Z,94236.00
2023-04-25T02:47:57.470Z,94236.00
2023-04-25T02:48:57.510Z,94236.00
2023-04-25T02:49:57.502Z,94236.00
2023-04-25T02:50:57.563Z,94238.00
2023-04-25T02:51:57.565Z,94236.00
2023-04-25T02:52:57.646Z,94234.00
2023-04-25T02:53:57.651Z,94236.00
2023-04-25T02:54:57.684Z,94234.00
2023-04-25T02:55:57.745Z,94236.00
2023-04-25T02:56:57.750Z,94236.00
2023-04-25T02:57:57.938Z,94238.00
2023-04-25T02:58:57.822Z,94238.00
2023-04-25T02:59:57.828Z,94238.00
2023-04-25T03:00:57.881Z,94238.00
2023-04-25T03:01:57.913Z,94238.00
2023-04-25T03:02:58.024Z,94240.00
2023-04-25T03:03:58.042Z,94238.00
2023-04-25T03:04:58.087Z,94232.00
2023-04-25T03:05:58.076Z,94232.00
2023-04-25T03:06:58.127Z,94236.00
2023-04-25T03:07:58.133Z,94234.00
2023-04-25T03:08:58.194Z,94234.00
2023-04-25T03:09:58.223Z,94236.00
2023-04-25T03:10:58.245Z,94236.00
2023-04-25T03:11:58.329Z,94236.00
2023-04-25T03:12:58.336Z,94234.00
2023-04-25T03:13:58.433Z,94236.00
2023-04-25T03:14:58.392Z,94234.00
2023-04-25T03:15:58.500Z,94234.00
2023-04-25T03:16:58.509Z,94230.00
2023-04-25T03:17:58.606Z,94234.00
2023-04-25T03:18:58.640Z,94232.00
2023-04-25T03:19:58.639Z,94230.00
2023-04-25T03:20:58.627Z,94230.00
2023-04-25T03:21:58.690Z,94230.00
2023-04-25T03:22:58.782Z,94230.00
2023-04-25T03:23:58.819Z,94230.00
2023-04-25T03:24:58.870Z,94230.00
2023-04-25T03:25:58.820Z,94230.00
2023-04-25T03:26:58.877Z,94228.00
2023-04-25T03:27:58.948Z,94230.00
2023-04-25T03:28:59.095Z,94230.00
2023-04-25T03:29:59.061Z,94228.00
2023-04-25T03:30:59.168Z,94226.00
2023-04-25T03:31:59.171Z,94228.00
2023-04-25T03:32:59.377Z,94228.00
2023-04-25T03:33:59.232Z,94228.00
2023-04-25T03:34:59.303Z,94228.00
2023-04-25T03:35:59.302Z,94226.00
2023-04-25T03:36:59.396Z,94224.00
2023-04-25T03:37:59.416Z,94224.00
2023-04-25T03:38:59.453Z,94222.00
2023-04-25T03:39:59.556Z,94218.00
2023-04-25T03:40:59.528Z,94226.00
2023-04-25T03:41:59.604Z,94226.00
2023-04-25T03:42:59.642Z,94224.00
2023-04-25T03:43:59.716Z,94226.00
2023-04-25T03:44:59.714Z,94228.00
2023-04-25T03:45:59.803Z,94226.00
2023-04-25T03:46:59.821Z,94226.00
2023-04-25T03:47:59.983Z,94226.00
2023-04-25T03:48:59.960Z,94222.00
2023-04-25T03:49:59.959Z,94220.00
2023-04-25T03:51:00.020Z,94214.00
2023-04-25T03:52:00.073Z,94214.00
2023-04-25T03:53:00.128Z,94222.00
2023-04-25T03:54:00.218Z,94216.00
2023-04-25T03:55:00.272Z,94218.00
2023-04-25T03:56:00.290Z,94220.00
2023-04-25T03:57:00.389Z,94220.00
2023-04-25T03:58:00.437Z,94220.00
2023-04-25T03:59:00.480Z,94222.00
2023-04-25T04:00:00.573Z,94220.00
2023-04-25T04:01:00.591Z,94222.00
2023-04-25T04:02:01.031Z,94224.00
2023-04-25T04:03:00.783Z,94224.00
2023-04-25T04:04:01.019Z,94226.00
2023-04-25T04:05:01.076Z,94220.00
2023-04-25T04:06:00.838Z,94222.00
2023-04-25T04:07:00.887Z,94224.00
2023-04-25T04:08:00.967Z,94222.00
2023-04-25T04:09:00.968Z,94222.00
2023-04-25T04:10:01.067Z,94220.00
2023-04-25T04:11:01.143Z,94222.00
2023-04-25T04:12:01.180Z,94220.00
2023-04-25T04:13:01.200Z,94218.00
2023-04-25T04:14:01.247Z,94218.00
2023-04-25T04:15:01.316Z,94218.00
2023-04-25T04:16:01.444Z,94220.00
2023-04-25T04:17:01.429Z,94224.00
2023-04-25T04:18:01.521Z,94224.00
2023-04-25T04:19:01.578Z,94226.00
2023-04-25T04:20:01.593Z,94224.00
2023-04-25T04:21:01.650Z,94224.00
2023-04-25T04:22:01.713Z,94222.00
2023-04-25T04:23:01.742Z,94224.00
2023-04-25T04:24:01.788Z,94224.00
2023-04-25T04:25:01.921Z,94220.00
2023-04-25T04:26:01.901Z,94220.00
2023-04-25T04:27:02.010Z,94224.00
2023-04-25T04:28:02.016Z,94224.00
2023-04-25T04:29:02.068Z,94224.00
2023-04-25T04:30:02.176Z,94226.00
2023-04-25T04:31:02.291Z,94222.00
2023-04-25T04:32:02.415Z,94220.00
2023-04-25T04:33:02.591Z,94220.00
2023-04-25T04:34:02.366Z,94220.00
2023-04-25T04:35:02.370Z,94220.00
2023-04-25T04:36:02.424Z,94218.00
2023-04-25T04:37:02.609Z,94212.00
2023-04-25T04:38:02.555Z,94216.00
2023-04-25T04:39:02.587Z,94214.00
2023-04-25T04:40:02.679Z,94214.00
2023-04-25T04:41:02.725Z,94216.00
2023-04-25T04:42:02.745Z,94218.00
2023-04-25T04:43:02.834Z,94216.00
2023-04-25T04:44:02.931Z,94218.00
2023-04-25T04:45:02.959Z,94216.00
2023-04-25T04:46:02.967Z,94218.00
2023-04-25T04:47:03.218Z,94220.00
2023-04-25T04:48:03.212Z,94222.00
2023-04-25T04:49:03.281Z,94220.00
2023-04-25T04:50:03.225Z,94224.00
2023-04-25T04:51:03.248Z,94224.00
2023-04-25T04:52:03.359Z,94218.00
2023-04-25T04:53:03.427Z,94216.00
2023-04-25T04:54:03.487Z,94214.00
2023-04-25T04:55:03.508Z,94210.00
2023-04-25T04:56:03.566Z,94214.00
2023-04-25T04:57:03.656Z,94210.00
2023-04-25T04:58:03.724Z,94210.00
2023-04-25T04:59:03.786Z,94209.00
2023-04-25T05:00:03.825Z,94205.00
2023-04-25T05:01:03.947Z,94205.00
2023-04-25T05:02:03.950Z,94209.00
2023-04-25T05:03:04.188Z,94210.00
2023-04-25T05:04:04.369Z,94207.00
2023-04-25T05:05:04.109Z,94207.00
2023-04-25T05:06:04.240Z,94209.00
2023-04-25T05:07:04.294Z,94210.00
2023-04-25T05:08:04.328Z,94209.00
2023-04-25T05:09:04.438Z,94209.00
2023-04-25T05:10:04.465Z,94207.00
2023-04-25T05:11:04.509Z,94207.00
2023-04-25T05:12:04.573Z,94207.00
2023-04-25T05:13:04.589Z,94205.00
2023-04-25T05:14:05.460Z,94203.00
2023-04-25T05:15:04.753Z,94201.00
2023-04-25T05:16:04.812Z,94201.00
2023-04-25T05:17:04.920Z,94201.00
2023-04-25T05:18:05.145Z,94201.00
2023-04-25T05:19:05.027Z,94203.00
2023-04-25T05:20:05.058Z,94205.00
2023-04-25T05:21:05.135Z,94203.00
2023-04-25T05:22:05.286Z,94207.00
2023-04-25T05:23:05.256Z,94209.00
2023-04-25T05:24:05.321Z,94209.00
2023-04-25T05:25:05.377Z,94207.00
2023-04-25T05:26:05.475Z,94205.00
2023-04-25T05:27:05.546Z,94207.00
2023-04-25T05:28:05.684Z,94207.00
2023-04-25T05:29:05.641Z,94205.00
2023-04-25T05:30:05.708Z,94203.00
2023-04-25T05:31:05.778Z,94201.00
2023-04-25T05:32:05.910Z,94199.00
2023-04-25T05:33:05.972Z,94201.00
2023-04-25T05:34:05.943Z,94197.00
2023-04-25T05:35:06.042Z,94201.00
2023-04-25T05:36:06.055Z,94199.00
2023-04-25T05:37:06.074Z,94201.00
2023-04-25T05:38:06.136Z,94197.00
2023-04-25T05:39:06.132Z,94195.00
2023-04-25T05:40:06.297Z,94191.00
2023-04-25T05:41:06.359Z,94191.00
2023-04-25T05:42:06.320Z,94191.00
2023-04-25T05:43:06.395Z,94187.00
2023-04-25T05:44:06.412Z,94189.00
2023-04-25T05:45:06.444Z,94189.00
2023-04-25T05:46:06.561Z,94193.00
2023-04-25T05:47:06.552Z,94193.00
2023-04-25T05:48:06.675Z,94195.00
2023-04-25T05:49:06.612Z,94191.00
2023-04-25T05:50:06.652Z,94193.00
2023-04-25T05:51:06.726Z,94191.00
2023-04-25T05:52:06.985Z,94189.00
2023-04-25T05:53:06.816Z,94191.00
2023-04-25T05:54:06.821Z,94193.00
2023-04-25T05:55:06.831Z,94193.00
2023-04-25T05:56:06.858Z,94197.00
2023-04-25T05:57:06.839Z,94197.00
2023-04-25T05:58:06.874Z,94191.00
2023-04-25T05:59:06.887Z,94187.00
2023-04-25T06:00:06.903Z,94181.00
2023-04-25T06:01:06.872Z,94173.00
2023-04-25T06:02:06.907Z,94165.00
2023-04-25T06:03:07.003Z,94159.00
2023-04-25T06:04:07.154Z,94159.00
2023-04-25T06:05:06.981Z,94154.00
2023-04-25T06:06:07.061Z,94157.00
2023-04-25T06:07:06.881Z,94157.00
2023-04-25T06:08:06.846Z,94157.00
2023-04-25T06:09:06.885Z,94161.00
2023-04-25T06:10:06.928Z,94159.00
2023-04-25T06:11:07.030Z,94167.00
2023-04-25T06:12:07.013Z,94163.00
2023-04-25T06:13:07.032Z,94159.00
2023-04-25T06:14:07.082Z,94161.00
2023-04-25T06:15:20.036Z,94157.00
2023-04-25T06:16:08.205Z,94159.00
2023-04-25T06:17:07.077Z,94157.00
2023-04-25T06:18:07.122Z,94161.00
2023-04-25T06:19:07.123Z,94161.00
2023-04-25T06:20:07.124Z,94159.00
2023-04-25T06:21:07.184Z,94155.00
2023-04-25T06:22:07.101Z,94155.00
2023-04-25T06:23:07.091Z,94157.00
2023-04-25T06:24:07.536Z,94159.00
2023-04-25T06:25:07.057Z,94157.00
2023-04-25T06:26:07.077Z,94159.00
2023-04-25T06:27:07.119Z,94163.00
2023-04-25T06:28:07.114Z,94159.00
2023-04-25T06:29:07.183Z,94157.00
2023-04-25T06:30:07.299Z,94154.00
2023-04-25T06:31:07.335Z,94154.00
2023-04-25T06:32:07.352Z,94150.00
2023-04-25T06:33:07.519Z,94150.00
2023-04-25T06:34:07.497Z,94148.00
2023-04-25T06:35:07.505Z,94146.00
2023-04-25T06:36:07.679Z,94148.00
2023-04-25T06:37:07.703Z,94148.00
2023-04-25T06:38:07.691Z,94146.00
2023-04-25T06:39:08.496Z,94142.00
2023-04-25T06:40:07.795Z,94146.00
2023-04-25T06:41:07.829Z,94146.00
2023-04-25T06:42:07.860Z,94146.00
2023-04-25T06:43:08.257Z,94148.00
2023-04-25T06:44:08.012Z,94148.00
2023-04-25T06:45:08.539Z,94148.00
2023-04-25T06:46:08.990Z,94148.00
2023-04-25T06:47:08.236Z,94148.00
2023-04-25T06:48:08.180Z,94148.00
2023-04-25T06:49:08.151Z,94144.00
2023-04-25T06:50:08.661Z,94146.00
2023-04-25T06:51:09.228Z,94144.00
2023-04-25T06:52:08.201Z,94146.00
2023-04-25T06:53:08.254Z,94148.00
2023-04-25T06:54:08.212Z,94148.00
2023-04-25T06:55:08.301Z,94138.00
2023-04-25T06:56:08.251Z,94140.00
2023-04-25T06:57:08.253Z,94140.00
2023-04-25T06:58:08.291Z,94136.00
2023-04-25T06:59:08.326Z,94136.00
2023-04-25T07:00:08.593Z,94130.00
2023-04-25T07:01:08.495Z,94130.00
2023-04-25T07:02:08.655Z,94128.00
2023-04-25T07:03:08.722Z,94130.00
2023-04-25T07:04:08.785Z,94126.00
2023-04-25T07:05:08.703Z,94124.00
2023-04-25T07:06:08.704Z,94116.00
2023-04-25T07:07:08.807Z,94116.00
2023-04-25T07:08:08.823Z,94126.00
2023-04-25T07:09:08.904Z,94128.00
2023-04-25T07:10:08.951Z,94124.00
2023-04-25T07:11:09.015Z,94124.00
2023-04-25T07:12:08.989Z,94116.00
2023-04-25T07:13:08.996Z,94116.00
2023-04-25T07:14:09.047Z,94114.00
2023-04-25T07:15:09.089Z,94116.00
2023-04-25T07:16:09.152Z,94124.00
2023-04-25T07:17:09.179Z,94114.00
2023-04-25T07:18:09.177Z,94112.00
2023-04-25T07:19:09.172Z,94126.00
2023-04-25T07:20:09.202Z,94124.00
2023-04-25T07:21:09.156Z,94128.00
2023-04-25T07:22:09.196Z,94130.00
2023-04-25T07:23:09.173Z,94128.00
2023-04-25T07:24:09.261Z,94132.00
2023-04-25T07:25:09.214Z,94136.00
2023-04-25T07:26:09.234Z,94134.00
2023-04-25T07:27:09.234Z,94134.00
2023-04-25T07:28:09.204Z,94130.00
2023-04-25T07:29:09.249Z,94128.00
2023-04-25T07:30:11.313Z,94126.00
2023-04-25T07:31:09.326Z,94116.00
2023-04-25T07:32:09.341Z,94124.00
2023-04-25T07:33:09.365Z,94126.00
2023-04-25T07:34:09.543Z,94124.00
2023-04-25T07:35:09.500Z,94126.00
2023-04-25T07:36:09.511Z,94126.00
2023-04-25T07:37:09.550Z,94134.00
2023-04-25T07:38:09.641Z,94132.00
2023-04-25T07:39:09.665Z,94132.00
2023-04-25T07:40:09.737Z,94130.00
2023-04-25T07:41:09.765Z,94134.00
2023-04-25T07:42:10.028Z,94134.00
2023-04-25T07:43:09.872Z,94132.00
2023-04-25T07:44:09.966Z,94134.00
2023-04-25T07:45:10.001Z,94134.00
2023-04-25T07:46:10.028Z,94134.00
2023-04-25T07:47:10.088Z,94130.00
2023-04-25T07:48:10.030Z,94126.00
2023-04-25T07:49:10.048Z,94128.00
2023-04-25T07:50:10.059Z,94126.00
2023-04-25T07:51:10.181Z,94126.00
2023-04-25T07:52:10.120Z,94128.00
2023-04-25T07:53:10.132Z,94132.00
2023-04-25T07:54:10.099Z,94130.00
2023-04-25T07:55:10.563Z,94132.00
2023-04-25T07:56:10.218Z,94134.00
2023-04-25T07:57:10.288Z,94136.00
2023-04-25T07:58:10.159Z,94134.00
2023-04-25T07:59:10.171Z,94132.00
2023-04-25T08:00:10.202Z,94130.00
2023-04-25T08:01:10.121Z,94130.00
2023-04-25T08:02:10.224Z,94130.00
2023-04-25T08:03:10.415Z,94126.00
2023-04-25T08:04:10.424Z,94136.00
2023-04-25T08:05:10.396Z,94134.00
2023-04-25T08:06:10.564Z,94126.00
2023-04-25T08:07:10.356Z,94124.00
2023-04-25T08:08:10.446Z,94114.00
2023-04-25T08:09:10.551Z,94130.00
2023-04-25T08:10:10.557Z,94126.00
2023-04-25T08:11:10.609Z,94130.00
2023-04-25T08:12:10.678Z,94126.00
2023-04-25T08:13:10.745Z,94124.00
2023-04-25T08:14:10.792Z,94126.00
2023-04-25T08:15:10.723Z,94126.00
2023-04-25T08:16:10.923Z,94126.00
2023-04-25T08:17:10.803Z,94126.00
2023-04-25T08:18:10.835Z,94126.00
2023-04-25T08:19:11.024Z,94128.00
2023-04-25T08:20:10.792Z,94128.00
2023-04-25T08:21:10.822Z,94128.00
2023-04-25T08:22:10.833Z,94134.00
2023-04-25T08:23:10.902Z,94130.00
2023-04-25T08:24:11.083Z,94134.00
2023-04-25T08:25:10.935Z,94132.00
2023-04-25T08:26:10.923Z,94130.00
2023-04-25T08:27:10.911Z,94136.00
2023-04-25T08:28:10.909Z,94134.00
2023-04-25T08:29:11.040Z,94132.00
2023-04-25T08:30:11.259Z,94130.00
2023-04-25T08:31:10.965Z,94114.00
2023-04-25T08:32:10.947Z,94114.00
2023-04-25T08:33:11.046Z,94116.00
2023-04-25T08:34:11.099Z,94112.00
2023-04-25T08:35:11.064Z,94109.00
2023-04-25T08:36:11.381Z,94109.00
2023-04-25T08:37:11.103Z,94110.00
2023-04-25T08:38:11.169Z,94110.00
2023-04-25T08:39:11.270Z,94110.00
2023-04-25T08:40:11.161Z,94112.00
2023-04-25T08:41:11.288Z,94112.00
2023-04-25T08:42:11.326Z,94112.00
2023-04-25T08:43:14.067Z,94114.00
2023-04-25T08:44:11.332Z,94114.00
2023-04-25T08:45:11.472Z,94114.00
2023-04-25T08:46:11.386Z,94124.00
2023-04-25T08:47:11.397Z,94116.00
2023-04-25T08:48:13.164Z,94126.00
2023-04-25T08:49:11.328Z,94126.00
2023-04-25T08:50:11.608Z,94124.00
2023-04-25T08:51:11.575Z,94126.00
2023-04-25T08:52:11.284Z,94124.00
2023-04-25T08:53:11.337Z,94112.00
2023-04-25T08:54:23.328Z,94116.00
2023-04-25T08:55:12.555Z,94114.00
2023-04-25T08:56:11.410Z,94112.00
2023-04-25T08:57:11.276Z,94114.00
2023-04-25T08:58:11.358Z,94110.00
2023-04-25T08:59:11.452Z,94114.00
2023-04-25T09:00:11.656Z,94112.00
2023-04-25T09:01:11.397Z,94110.00
2023-04-25T09:02:11.281Z,94112.00
2023-04-25T09:03:11.398Z,94110.00
2023-04-25T09:04:11.321Z,94112.00
2023-04-25T09:05:11.270Z,94110.00
2023-04-25T09:06:11.212Z,94114.00
2023-04-25T09:07:12.054Z,94110.00
2023-04-25T09:08:11.199Z,94112.00
2023-04-25T09:09:11.251Z,94112.00
2023-04-25T09:10:11.298Z,94112.00
2023-04-25T09:11:11.168Z,94114.00
2023-04-25T09:12:11.250Z,94114.00
2023-04-25T09:13:11.175Z,94112.00
2023-04-25T09:14:11.202Z,94112.00
2023-04-25T09:15:11.188Z,94112.00
2023-04-25T09:16:11.245Z,94109.00
2023-04-25T09:17:11.884Z,94109.00
2023-04-25T09:18:11.328Z,94107.00
2023-04-25T09:19:11.318Z,94109.00
2023-04-25T09:20:11.338Z,94107.00
2023-04-25T09:21:14.266Z,94107.00
2023-04-25T09:22:11.409Z,94107.00
2023-04-25T09:23:11.313Z,94107.00
2023-04-25T09:24:11.293Z,94107.00
2023-04-25T09:25:11.366Z,94105.00
2023-04-25T09:26:11.318Z,94105.00
2023-04-25T09:27:11.280Z,94105.00
2023-04-25T09:28:11.292Z,94107.00
2023-04-25T09:29:11.304Z,94107.00
2023-04-25T09:30:11.299Z,94109.00
2023-04-25T09:31:11.285Z,94107.00
2023-04-25T09:32:11.656Z,94112.00
2023-04-25T09:33:11.293Z,94112.00
2023-04-25T09:34:11.577Z,94114.00
2023-04-25T09:35:11.574Z,94110.00
2023-04-25T09:36:11.265Z,94109.00
2023-04-25T09:37:11.226Z,94107.00
2023-04-25T09:38:11.249Z,94109.00
2023-04-25T09:39:11.259Z,94107.00
2023-04-25T09:40:11.657Z,94107.00
2023-04-25T09:41:11.239Z,94109.00
2023-04-25T09:42:11.214Z,94110.00
2023-04-25T09:43:11.174Z,94112.00
2023-04-25T09:44:11.176Z,94114.00
2023-04-25T09:45:11.130Z,94112.00
2023-04-25T09:46:11.609Z,94110.00
2023-04-25T09:47:11.147Z,94112.00
2023-04-25T09:48:11.283Z,94112.00
2023-04-25T09:49:11.557Z,94112.00
2023-04-25T09:50:11.163Z,94116.00
2023-04-25T09:51:11.140Z,94124.00
2023-04-25T09:52:11.132Z,94114.00
2023-04-25T09:53:11.203Z,94114.00
2023-04-25T09:54:11.122Z,94114.00
2023-04-25T09:55:12.130Z,94114.00
2023-04-25T09:56:11.111Z,94114.00
2023-04-25T09:57:11.618Z,94114.00
2023-04-25T09:58:11.171Z,94112.00
2023-04-25T09:59:11.270Z,94114.00
2023-04-25T10:00:11.065Z,94124.00
2023-04-25T10:01:11.064Z,94126.00
2023-04-25T10:02:11.075Z,94116.00
2023-04-25T10:03:11.136Z,94124.00
2023-04-25T10:04:11.099Z,94124.00
2023-04-25T10:05:11.275Z,94116.00
2023-04-25T10:06:11.017Z,94126.00
2023-04-25T10:07:11.052Z,94116.00
2023-04-25T10:08:11.081Z,94124.00
2023-04-25T10:09:11.006Z,94116.00
2023-04-25T10:10:11.033Z,94112.00
2023-04-25T10:11:10.973Z,94114.00
2023-04-25T10:12:11.096Z,94114.00
2023-04-25T10:13:11.124Z,94112.00
2023-04-25T10:14:10.988Z,94114.00
2023-04-25T10:15:11.012Z,94110.00
2023-04-25T10:16:11.014Z,94110.00
2023-04-25T10:17:10.994Z,94110.00
2023-04-25T10:18:11.149Z,94109.00
2023-04-25T10:19:10.999Z,94109.00
2023-04-25T10:20:11.030Z,94105.00
2023-04-25T10:21:11.074Z,94105.00
2023-04-25T10:22:11.144Z,94103.00
2023-04-25T10:23:11.106Z,94097.00
2023-04-25T10:24:11.041Z,94099.00
2023-04-25T10:25:11.047Z,94099.00
2023-04-25T10:26:11.099Z,94101.00
2023-04-25T10:27:11.109Z,94101.00
2023-04-25T10:28:11.080Z,94099.00
2023-04-25T10:29:11.094Z,94099.00
2023-04-25T10:30:11.642Z,94097.00
2023-04-25T10:31:11.146Z,94093.00
2023-04-25T10:32:11.358Z,94091.00
2023-04-25T10:33:11.148Z,94091.00
2023-04-25T10:34:11.193Z,94087.00
2023-04-25T10:35:11.272Z,94085.00
2023-04-25T10:36:11.171Z,94087.00
2023-04-25T10:37:11.220Z,94083.00
2023-04-25T10:38:11.232Z,94081.00
2023-04-25T10:39:11.265Z,94077.00
2023-04-25T10:40:11.622Z,94077.00
2023-04-25T10:41:11.261Z,94077.00
2023-04-25T10:42:11.306Z,94075.00
2023-04-25T10:43:12.377Z,94075.00
2023-04-25T10:44:11.604Z,94075.00
2023-04-25T10:45:11.339Z,94073.00
2023-04-25T10:46:11.379Z,94073.00
2023-04-25T10:47:11.468Z,94073.00
2023-04-25T10:48:11.394Z,94075.00
2023-04-25T10:49:13.050Z,94073.00
2023-04-25T10:50:11.379Z,94073.00
2023-04-25T10:51:11.358Z,94075.00
2023-04-25T10:52:11.312Z,94075.00
2023-04-25T10:53:11.337Z,94077.00
2023-04-25T10:54:11.429Z,94075.00
2023-04-25T10:55:11.303Z,94079.00
2023-04-25T10:56:12.502Z,94079.00
2023-04-25T10:57:11.587Z,94081.00
2023-04-25T10:58:11.342Z,94083.00
2023-04-25T10:59:11.457Z,94083.00
2023-04-25T11:00:11.426Z,94087.00
2023-04-25T11:01:11.309Z,94085.00
2023-04-25T11:02:11.351Z,94089.00
2023-04-25T11:03:11.313Z,94087.00
2023-04-25T11:04:11.480Z,94089.00
2023-04-25T11:05:11.260Z,94087.00
2023-04-25T11:06:11.300Z,94085.00
2023-04-25T11:07:11.257Z,94085.00
2023-04-25T11:08:11.208Z,94081.00
2023-04-25T11:09:11.252Z,94079.00
2023-04-25T11:10:11.196Z,94075.00
2023-04-25T11:11:11.209Z,94077.00
2023-04-25T11:12:11.642Z,94075.00
2023-04-25T11:13:11.220Z,94075.00
2023-04-25T11:14:11.272Z,94077.00
2023-04-25T11:15:11.158Z,94075.00
2023-04-25T11:16:12.836Z,94073.00
2023-04-25T11:17:11.670Z,94075.00
2023-04-25T11:18:11.214Z,94071.00
2023-04-25T11:19:11.157Z,94071.00
2023-04-25T11:20:11.144Z,94071.00
2023-04-25T11:21:11.155Z,94073.00
2023-04-25T11:22:11.103Z,94075.00
2023-04-25T11:23:11.113Z,94071.00
2023-04-25T11:24:11.100Z,94073.00
2023-04-25T11:25:11.199Z,94071.00
2023-04-25T11:26:11.135Z,94069.00
2023-04-25T11:27:11.144Z,94069.00
2023-04-25T11:28:11.242Z,94069.00
2023-04-25T11:29:11.143Z,94071.00
2023-04-25T11:30:11.204Z,94073.00
2023-04-25T11:31:11.234Z,94075.00
2023-04-25T11:32:11.344Z,94075.00
2023-04-25T11:33:11.288Z,94079.00
2023-04-25T11:34:11.270Z,94079.00
2023-04-25T11:35:11.275Z,94085.00
2023-04-25T11:36:11.317Z,94087.00
2023-04-25T11:37:11.340Z,94089.00
2023-04-25T11:38:11.329Z,94097.00
2023-04-25T11:39:11.326Z,94103.00
2023-04-25T11:40:11.407Z,94103.00
2023-04-25T11:41:11.413Z,94103.00
2023-04-25T11:42:13.813Z,94105.00
2023-04-25T11:43:11.418Z,94107.00
2023-04-25T11:44:11.387Z,94107.00
2023-04-25T11:45:11.397Z,94112.00